sensor_id;sensor_type;location;lat;lon;timestamp;temperature;humidity
63960;DHT22;50136;51.374;0.096;2022-11-09T00:04:52;11.50;99.90
63960;DHT22;50136;51.374;0.096;2022-11-09T00:14:54;11.40;99.90
63960;DHT22;50136;51.374;0.096;2022-11-09T00:24:57;11.40;99.90
63960;DHT22;50136;51.374;0.096;2022-11-09T00:34:59;11.30;99.90
63960;DHT22;50136;51.374;0.096;2022-11-09T00:45:03;11.30;99.90
63960;DHT22;50136;51.374;0.096;2022-11-09T00:55:05;11.20;99.90
63960;DHT22;50136;51.374;0.096;2022-11-09T01:05:08;11.10;99.90
63960;DHT22;50136;51.374;0.096;2022-11-09T01:15:10;11.10;99.90
63960;DHT22;50136;51.374;0.096;2022-11-09T01:25:14;11.00;99.90
63960;DHT22;50136;51.374;0.096;2022-11-09T01:35:16;11.20;99.90
63960;DHT22;50136;51.374;0.096;2022-11-09T01:45:25;11.40;99.90
63960;DHT22;50136;51.374;0.096;2022-11-09T01:55:27;11.30;99.90
63960;DHT22;50136;51.374;0.096;2022-11-09T02:05:32;11.20;99.90
63960;DHT22;50136;51.374;0.096;2022-11-09T02:15:37;11.20;99.90
63960;DHT22;50136;51.374;0.096;2022-11-09T02:25:50;11.10;99.90
63960;DHT22;50136;51.374;0.096;2022-11-09T02:35:53;11.00;99.90
63960;DHT22;50136;51.374;0.096;2022-11-09T02:45:57;11.10;99.90
63960;DHT22;50136;51.374;0.096;2022-11-09T02:55:58;11.10;99.90
63960;DHT22;50136;51.374;0.096;2022-11-09T03:06:02;11.10;99.90
63960;DHT22;50136;51.374;0.096;2022-11-09T03:16:05;11.30;99.90
63960;DHT22;50136;51.374;0.096;2022-11-09T03:26:09;11.30;99.90
63960;DHT22;50136;51.374;0.096;2022-11-09T03:36:10;11.30;99.90
63960;DHT22;50136;51.374;0.096;2022-11-09T03:46:14;11.40;99.90
63960;DHT22;50136;51.374;0.096;2022-11-09T03:56:16;11.20;99.90
63960;DHT22;50136;51.374;0.096;2022-11-09T04:06:19;11.00;99.90
63960;DHT22;50136;51.374;0.096;2022-11-09T04:16:21;11.10;99.90
63960;DHT22;50136;51.374;0.096;2022-11-09T04:26:24;11.10;99.90
63960;DHT22;50136;51.374;0.096;2022-11-09T04:36:26;11.10;99.90
63960;DHT22;50136;51.374;0.096;2022-11-09T04:46:29;11.00;99.90
63960;DHT22;50136;51.374;0.096;2022-11-09T04:56:31;11.00;99.90
63960;DHT22;50136;51.374;0.096;2022-11-09T05:06:35;10.90;99.90
63960;DHT22;50136;51.374;0.096;2022-11-09T05:16:37;10.90;99.90
63960;DHT22;50136;51.374;0.096;2022-11-09T05:26:40;11.00;99.90
63960;DHT22;50136;51.374;0.096;2022-11-09T05:36:42;11.00;99.90
63960;DHT22;50136;51.374;0.096;2022-11-09T05:46:47;10.90;99.90
63960;DHT22;50136;51.374;0.096;2022-11-09T05:56:49;10.80;99.90
63960;DHT22;50136;51.374;0.096;2022-11-09T06:06:52;10.70;99.90
63960;DHT22;50136;51.374;0.096;2022-11-09T06:16:54;10.60;99.90
63960;DHT22;50136;51.374;0.096;2022-11-09T06:26:57;10.60;99.90
63960;DHT22;50136;51.374;0.096;2022-11-09T06:36:59;10.60;99.90
63960;DHT22;50136;51.374;0.096;2022-11-09T06:47:03;10.50;99.90
63960;DHT22;50136;51.374;0.096;2022-11-09T06:57:05;10.50;99.90
63960;DHT22;50136;51.374;0.096;2022-11-09T07:07:08;10.40;99.90
63960;DHT22;50136;51.374;0.096;2022-11-09T07:17:10;10.30;99.90
63960;DHT22;50136;51.374;0.096;2022-11-09T07:27:13;10.40;99.90
63960;DHT22;50136;51.374;0.096;2022-11-09T07:37:15;10.50;99.90
63960;DHT22;50136;51.374;0.096;2022-11-09T07:47:19;10.50;99.90
63960;DHT22;50136;51.374;0.096;2022-11-09T07:57:21;10.50;99.90
63960;DHT22;50136;51.374;0.096;2022-11-09T08:07:24;10.50;99.90
63960;DHT22;50136;51.374;0.096;2022-11-09T08:17:26;10.40;99.90
63960;DHT22;50136;51.374;0.096;2022-11-09T08:27:30;10.60;99.90
63960;DHT22;50136;51.374;0.096;2022-11-09T08:37:33;10.90;99.90
63960;DHT22;50136;51.374;0.096;2022-11-09T08:47:36;12.30;99.90
63960;DHT22;50136;51.374;0.096;2022-11-09T08:57:38;14.30;99.90
63960;DHT22;50136;51.374;0.096;2022-11-09T09:07:41;15.90;99.90
63960;DHT22;50136;51.374;0.096;2022-11-09T09:17:44;16.70;99.90
63960;DHT22;50136;51.374;0.096;2022-11-09T09:27:47;17.20;99.90
63960;DHT22;50136;51.374;0.096;2022-11-09T09:37:49;17.30;99.90
63960;DHT22;50136;51.374;0.096;2022-11-09T09:47:57;17.20;99.90
63960;DHT22;50136;51.374;0.096;2022-11-09T09:58:05;17.20;99.90
63960;DHT22;50136;51.374;0.096;2022-11-09T10:08:14;16.50;99.90
63960;DHT22;50136;51.374;0.096;2022-11-09T10:18:33;16.30;99.90
63960;DHT22;50136;51.374;0.096;2022-11-09T10:28:40;15.50;99.90
63960;DHT22;50136;51.374;0.096;2022-11-09T10:39:03;15.40;99.90
63960;DHT22;50136;51.374;0.096;2022-11-09T10:49:20;14.70;99.90
63960;DHT22;50136;51.374;0.096;2022-11-09T10:59:35;14.10;99.90
63960;DHT22;50136;51.374;0.096;2022-11-09T11:09:39;13.70;99.90
63960;DHT22;50136;51.374;0.096;2022-11-09T11:19:41;13.50;99.90
63960;DHT22;50136;51.374;0.096;2022-11-09T11:29:46;13.20;99.90
63960;DHT22;50136;51.374;0.096;2022-11-09T11:40:00;13.20;99.90
63960;DHT22;50136;51.374;0.096;2022-11-09T11:50:14;13.30;99.90
63960;DHT22;50136;51.374;0.096;2022-11-09T12:00:26;13.10;99.90
63960;DHT22;50136;51.374;0.096;2022-11-09T12:10:40;13.30;99.90
63960;DHT22;50136;51.374;0.096;2022-11-09T12:20:52;13.40;99.90
63960;DHT22;50136;51.374;0.096;2022-11-09T12:41:34;13.50;99.90
63960;DHT22;50136;51.374;0.096;2022-11-09T12:51:39;13.50;99.90
63960;DHT22;50136;51.374;0.096;2022-11-09T13:01:47;13.50;99.90
63960;DHT22;50136;51.374;0.096;2022-11-09T13:11:52;13.50;99.90
63960;DHT22;50136;51.374;0.096;2022-11-09T13:21:54;13.40;99.90
63960;DHT22;50136;51.374;0.096;2022-11-09T13:32:25;13.60;99.90
63960;DHT22;50136;51.374;0.096;2022-11-09T13:42:29;13.80;99.90
63960;DHT22;50136;51.374;0.096;2022-11-09T13:52:50;13.90;99.90
63960;DHT22;50136;51.374;0.096;2022-11-09T14:02:57;13.70;99.90
63960;DHT22;50136;51.374;0.096;2022-11-09T14:13:24;13.50;99.90
63960;DHT22;50136;51.374;0.096;2022-11-09T14:23:30;13.60;99.90
63960;DHT22;50136;51.374;0.096;2022-11-09T14:33:34;13.70;99.90
63960;DHT22;50136;51.374;0.096;2022-11-09T14:43:39;13.70;99.90
63960;DHT22;50136;51.374;0.096;2022-11-09T14:53:44;13.60;99.90
63960;DHT22;50136;51.374;0.096;2022-11-09T15:04:06;13.50;99.90
63960;DHT22;50136;51.374;0.096;2022-11-09T15:14:20;13.50;99.90
63960;DHT22;50136;51.374;0.096;2022-11-09T15:24:25;13.40;99.90
63960;DHT22;50136;51.374;0.096;2022-11-09T15:34:35;13.30;99.90
63960;DHT22;50136;51.374;0.096;2022-11-09T15:44:38;13.10;99.90
63960;DHT22;50136;51.374;0.096;2022-11-09T15:54:41;12.90;99.90
63960;DHT22;50136;51.374;0.096;2022-11-09T16:04:47;12.60;99.90
63960;DHT22;50136;51.374;0.096;2022-11-09T16:14:51;12.50;99.90
63960;DHT22;50136;51.374;0.096;2022-11-09T16:24:53;12.30;99.90
63960;DHT22;50136;51.374;0.096;2022-11-09T16:34:56;12.20;99.90
63960;DHT22;50136;51.374;0.096;2022-11-09T16:45:18;12.00;99.90
63960;DHT22;50136;51.374;0.096;2022-11-09T16:55:22;11.90;99.90
63960;DHT22;50136;51.374;0.096;2022-11-09T17:05:24;11.80;99.90
63960;DHT22;50136;51.374;0.096;2022-11-09T17:15:27;11.60;99.90
63960;DHT22;50136;51.374;0.096;2022-11-09T17:25:29;11.60;99.90
63960;DHT22;50136;51.374;0.096;2022-11-09T17:35:33;11.50;99.90
63960;DHT22;50136;51.374;0.096;2022-11-09T17:45:34;11.30;99.90
63960;DHT22;50136;51.374;0.096;2022-11-09T18:06:40;11.20;99.90
63960;DHT22;50136;51.374;0.096;2022-11-09T18:16:42;11.20;99.90
63960;DHT22;50136;51.374;0.096;2022-11-09T18:26:46;11.10;99.90
63960;DHT22;50136;51.374;0.096;2022-11-09T18:36:47;11.10;99.90
63960;DHT22;50136;51.374;0.096;2022-11-09T18:46:51;11.10;99.90
63960;DHT22;50136;51.374;0.096;2022-11-09T18:56:53;11.20;99.90
63960;DHT22;50136;51.374;0.096;2022-11-09T19:06:56;11.10;99.90
63960;DHT22;50136;51.374;0.096;2022-11-09T19:16:58;11.10;99.90
63960;DHT22;50136;51.374;0.096;2022-11-09T19:27:01;11.10;99.90
63960;DHT22;50136;51.374;0.096;2022-11-09T19:37:03;11.00;99.90
63960;DHT22;50136;51.374;0.096;2022-11-09T19:47:07;11.00;99.90
63960;DHT22;50136;51.374;0.096;2022-11-09T19:57:11;10.90;99.90
63960;DHT22;50136;51.374;0.096;2022-11-09T20:07:14;10.80;99.90
63960;DHT22;50136;51.374;0.096;2022-11-09T20:17:16;10.80;99.90
63960;DHT22;50136;51.374;0.096;2022-11-09T20:27:19;10.60;99.90
63960;DHT22;50136;51.374;0.096;2022-11-09T20:37:21;10.50;99.90
63960;DHT22;50136;51.374;0.096;2022-11-09T20:47:25;10.40;99.90
63960;DHT22;50136;51.374;0.096;2022-11-09T21:08:05;10.20;99.90
63960;DHT22;50136;51.374;0.096;2022-11-09T21:18:07;10.10;99.90
63960;DHT22;50136;51.374;0.096;2022-11-09T21:28:13;10.20;99.90
63960;DHT22;50136;51.374;0.096;2022-11-09T21:38:15;10.30;99.90
63960;DHT22;50136;51.374;0.096;2022-11-09T21:48:19;10.30;99.90
63960;DHT22;50136;51.374;0.096;2022-11-09T21:58:21;10.40;99.90
63960;DHT22;50136;51.374;0.096;2022-11-09T22:08:24;10.40;99.90
63960;DHT22;50136;51.374;0.096;2022-11-09T22:18:29;10.30;99.90
63960;DHT22;50136;51.374;0.096;2022-11-09T22:28:33;10.30;99.90
63960;DHT22;50136;51.374;0.096;2022-11-09T22:38:35;10.30;99.90
63960;DHT22;50136;51.374;0.096;2022-11-09T22:48:39;10.40;99.90
63960;DHT22;50136;51.374;0.096;2022-11-09T22:58:41;10.30;99.90
63960;DHT22;50136;51.374;0.096;2022-11-09T23:08:44;10.30;99.90
63960;DHT22;50136;51.374;0.096;2022-11-09T23:18:47;10.20;99.90
63960;DHT22;50136;51.374;0.096;2022-11-09T23:28:50;10.10;99.90
63960;DHT22;50136;51.374;0.096;2022-11-09T23:38:53;10.10;99.90
63960;DHT22;50136;51.374;0.096;2022-11-09T23:48:56;10.10;99.90
63960;DHT22;50136;51.374;0.096;2022-11-09T23:58:58;10.10;99.90
